createdAt,value
2019-04-23T00:02:05.327Z,50.30
2019-04-23T00:04:37.107Z,50.40
2019-04-23T00:07:21.601Z,50.50
2019-04-23T00:09:39.781Z,50.50
2019-04-23T00:12:23.795Z,50.60
2019-04-23T00:14:47.544Z,50.50
2019-04-23T00:17:19.269Z,50.50
2019-04-23T00:19:48.571Z,50.70
2019-04-23T00:22:20.492Z,51.00
2019-04-23T00:27:32.141Z,50.90
2019-04-23T00:29:57.643Z,50.80
2019-04-23T00:32:30.304Z,50.90
2019-04-23T00:35:05.887Z,51.10
2019-04-23T00:37:31.605Z,50.90
2019-04-23T00:40:07.249Z,51.20
2019-04-23T00:42:36.596Z,50.90
2019-04-23T00:45:00.484Z,50.90
2019-04-23T00:47:48.285Z,51.00
2019-04-23T00:50:12.384Z,51.10
2019-04-23T00:52:38.863Z,51.40
2019-04-23T00:57:43.417Z,51.60
2019-04-23T01:00:56.141Z,51.30
2019-04-23T01:07:51.614Z,51.50
2019-04-23T01:10:32.248Z,51.60
2019-04-23T01:15:32.433Z,51.60
2019-04-23T01:18:02.287Z,51.90
2019-04-23T01:20:39.064Z,51.90
2019-04-23T01:22:48.774Z,52.20
2019-04-23T01:25:31.013Z,52.40
2019-04-23T01:28:23.864Z,52.50
2019-04-23T01:30:59.158Z,52.70
2019-04-23T01:36:14.036Z,52.70
2019-04-23T01:38:35.653Z,53.00
2019-04-23T01:40:55.461Z,53.20
2019-04-23T01:43:30.294Z,53.10
2019-04-23T01:46:02.449Z,53.20
2019-04-23T01:48:36.726Z,53.20
2019-04-23T01:51:20.191Z,53.30
2019-04-23T01:56:04.746Z,53.40
2019-04-23T02:01:11.644Z,53.60
2019-04-23T02:03:42.610Z,54.00
2019-04-23T02:06:14.789Z,54.10
2019-04-23T02:08:50.480Z,54.50
2019-04-23T02:11:13.137Z,54.70
2019-04-23T02:16:19.375Z,55.00
2019-04-23T02:18:52.657Z,55.00
2019-04-23T02:21:26.080Z,55.10
2019-04-23T02:23:55.158Z,55.10
2019-04-23T02:26:33.325Z,55.30
2019-04-23T02:31:57.649Z,55.80
2019-04-23T02:36:45.109Z,56.30
2019-04-23T02:39:01.062Z,56.40
2019-04-23T02:42:04.795Z,56.50
2019-04-23T02:44:16.736Z,56.80
2019-04-23T02:46:51.640Z,57.10
2019-04-23T02:49:29.098Z,57.30
2019-04-23T02:51:56.809Z,57.20
2019-04-23T02:54:44.582Z,57.40
2019-04-23T02:59:31.898Z,57.60
2019-04-23T03:02:05.745Z,58.00
2019-04-23T03:07:09.468Z,58.40
2019-04-23T03:09:36.657Z,58.50
2019-04-23T03:12:08.235Z,58.60
2019-04-23T03:14:35.056Z,58.90
2019-04-23T03:17:02.971Z,59.20
2019-04-23T03:19:38.214Z,59.20
2019-04-23T03:22:06.018Z,58.70
2019-04-23T03:25:03.597Z,59.20
2019-04-23T03:27:29.205Z,59.50
2019-04-23T03:29:59.700Z,60.00
2019-04-23T03:37:33.996Z,60.90
2019-04-23T03:40:01.872Z,61.60
2019-04-23T03:45:08.021Z,61.90
2019-04-23T03:47:31.989Z,62.30
2019-04-23T03:55:10.413Z,63.70
2019-04-23T04:05:22.329Z,65.10
2019-04-23T04:08:12.100Z,65.30
2019-04-23T04:10:16.467Z,65.30
2019-04-23T04:15:49.050Z,65.70
2019-04-23T04:18:21.259Z,66.00
2019-04-23T04:20:55.762Z,66.00
2019-04-23T04:23:28.115Z,65.90
2019-04-23T04:30:43.818Z,66.20
2019-04-23T04:36:07.828Z,66.60
2019-04-23T04:38:38.546Z,67.00
2019-04-23T04:43:32.132Z,66.20
2019-04-23T04:46:21.794Z,66.20
2019-04-23T04:48:37.760Z,66.70
2019-04-23T04:51:16.454Z,66.70
2019-04-23T04:58:44.105Z,67.30
2019-04-23T05:06:16.232Z,67.50
2019-04-23T05:11:17.391Z,67.10
2019-04-23T05:13:47.231Z,66.70
2019-04-23T05:16:18.289Z,66.20
2019-04-23T05:18:53.726Z,66.40
2019-04-23T05:23:50.931Z,66.10
2019-04-23T05:26:26.488Z,66.30
2019-04-23T05:29:01.305Z,65.90
2019-04-23T05:36:41.645Z,66.40
2019-04-23T05:39:02.124Z,65.40
2019-04-23T05:44:02.283Z,64.60
2019-04-23T05:46:33.840Z,65.00
2019-04-23T05:49:09.358Z,65.30
2019-04-23T05:51:49.167Z,64.90
2019-04-23T05:54:08.511Z,64.30
2019-04-23T06:07:11.600Z,63.50
2019-04-23T06:10:40.726Z,63.20
2019-04-23T06:13:17.082Z,62.80
2019-04-23T06:15:44.025Z,63.10
2019-04-23T06:18:24.825Z,62.70
2019-04-23T06:20:59.024Z,62.50
2019-04-23T06:23:43.579Z,61.90
2019-04-23T06:28:22.462Z,61.60
2019-04-23T06:31:09.293Z,61.30
2019-04-23T06:33:25.627Z,61.80
2019-04-23T06:35:57.273Z,61.60
2019-04-23T06:38:42.824Z,61.80
2019-04-23T06:41:05.742Z,61.10
2019-04-23T06:43:47.091Z,61.70
2019-04-23T06:46:05.336Z,62.00
2019-04-23T06:48:34.843Z,61.30
2019-04-23T06:51:11.211Z,60.90
2019-04-23T06:53:36.053Z,60.50
2019-04-23T06:56:13.652Z,61.30
2019-04-23T06:58:44.124Z,60.50
2019-04-23T07:01:10.381Z,59.30
2019-04-23T07:06:22.271Z,58.40
2019-04-23T07:09:05.229Z,58.20
2019-04-23T07:11:36.935Z,58.10
2019-04-23T07:13:56.420Z,58.50
2019-04-23T07:16:21.594Z,58.60
2019-04-23T07:18:54.216Z,58.80
2019-04-23T07:21:26.727Z,59.10
2019-04-23T07:24:05.721Z,58.50
2019-04-23T07:29:15.797Z,56.80
2019-04-23T07:31:35.307Z,57.50
2019-04-23T07:34:07.650Z,56.60
2019-04-23T07:36:35.913Z,56.90
2019-04-23T07:39:11.748Z,56.00
2019-04-23T07:41:52.929Z,55.70
2019-04-23T07:44:28.251Z,55.60
2019-04-23T07:47:18.678Z,55.00
2019-04-23T07:49:41.466Z,54.90
2019-04-23T07:52:15.054Z,55.00
2019-04-23T07:54:49.201Z,55.00
2019-04-23T07:57:21.890Z,55.00
2019-04-23T07:59:50.224Z,56.30
2019-04-23T08:02:24.214Z,55.90
2019-04-23T08:05:17.966Z,55.70
2019-04-23T08:07:20.042Z,56.90
2019-04-23T08:09:54.732Z,55.10
2019-04-23T08:12:25.244Z,54.20
2019-04-23T08:15:15.203Z,54.40
2019-04-23T08:17:26.255Z,53.80
2019-04-23T08:20:04.659Z,54.00
2019-04-23T08:25:08.992Z,53.20
2019-04-23T08:28:01.704Z,53.70
2019-04-23T08:30:10.975Z,53.10
2019-04-23T08:32:47.304Z,53.10
2019-04-23T08:35:16.402Z,52.30
2019-04-23T08:40:20.888Z,51.30
2019-04-23T08:45:22.669Z,52.00
2019-04-23T08:48:07.649Z,51.30
2019-04-23T08:50:32.126Z,50.90
2019-04-23T08:53:17.756Z,51.50
2019-04-23T08:55:38.739Z,50.80
2019-04-23T08:58:10.696Z,51.40
2019-04-23T09:00:46.799Z,50.40
2019-04-23T09:03:28.471Z,50.30
2019-04-23T09:05:52.691Z,50.80
2019-04-23T09:14:20.040Z,49.40
2019-04-23T09:16:57.961Z,49.40
2019-04-23T09:22:00.530Z,49.50
2019-04-23T09:24:29.582Z,49.10
2019-04-23T09:27:09.804Z,49.30
2019-04-23T09:29:40.579Z,49.30
2019-04-23T09:37:42.258Z,50.20
2019-04-23T09:41:03.040Z,49.50
2019-04-23T09:43:36.714Z,48.90
2019-04-23T09:46:24.333Z,48.70
2019-04-23T09:48:58.218Z,49.20
2019-04-23T09:51:31.283Z,49.90
2019-04-23T09:54:04.363Z,50.40
2019-04-23T09:56:37.774Z,50.60
2019-04-23T09:59:08.825Z,50.50
2019-04-23T10:01:42.536Z,50.80
2019-04-23T10:03:50.852Z,50.50
2019-04-23T10:06:19.118Z,50.60
2019-04-23T10:08:47.535Z,51.30
2019-04-23T10:11:13.846Z,51.10
2019-04-23T10:13:45.039Z,51.60
2019-04-23T10:16:17.240Z,50.70
2019-04-23T10:18:47.021Z,49.50
2019-04-23T10:21:17.514Z,50.20
2019-04-23T10:23:47.608Z,49.60
2019-04-23T10:26:17.366Z,49.90
2019-04-23T10:28:49.758Z,50.80
2019-04-23T10:31:20.836Z,51.00
2019-04-23T10:33:52.238Z,50.30
2019-04-23T10:36:27.169Z,50.90
2019-04-23T10:39:00.611Z,51.00
2019-04-23T10:41:25.738Z,51.10
2019-04-23T10:43:58.589Z,51.30
2019-04-23T10:46:53.692Z,50.40
2019-04-23T10:54:43.379Z,49.30
2019-04-23T10:57:04.911Z,48.30
2019-04-23T10:59:43.264Z,48.70
2019-04-23T11:02:34.510Z,47.90
2019-04-23T11:04:54.124Z,48.40
2019-04-23T11:07:28.697Z,47.20
2019-04-23T11:12:42.161Z,46.10
2019-04-23T11:15:22.116Z,45.30
2019-04-23T11:17:45.901Z,45.50
2019-04-23T11:20:25.380Z,45.90
2019-04-23T11:22:48.276Z,46.10
2019-04-23T11:25:31.650Z,47.00
2019-04-23T11:30:36.616Z,45.20
2019-04-23T11:33:05.178Z,45.40
2019-04-23T11:40:28.362Z,45.40
2019-04-23T11:48:36.591Z,45.10
2019-04-23T11:51:24.180Z,45.00
2019-04-23T12:01:03.154Z,44.80
2019-04-23T12:03:37.307Z,45.30
2019-04-23T12:06:25.035Z,45.00
2019-04-23T12:09:17.376Z,44.90
2019-04-23T12:14:33.014Z,45.80
2019-04-23T12:17:08.353Z,45.70
2019-04-23T12:19:52.084Z,46.10
2019-04-23T12:22:03.544Z,45.60
2019-04-23T12:29:37.387Z,43.90
2019-04-23T12:37:36.388Z,44.80
2019-04-23T12:40:06.113Z,45.60
2019-04-23T12:45:17.009Z,44.50
2019-04-23T12:52:40.680Z,45.30
2019-04-23T12:57:47.296Z,45.80
2019-04-23T13:05:21.423Z,45.30
2019-04-23T13:07:55.547Z,44.40
2019-04-23T13:10:34.992Z,44.60
2019-04-23T13:15:22.707Z,45.00
2019-04-23T13:20:27.964Z,43.80
2019-04-23T13:23:03.209Z,44.00
2019-04-23T13:25:56.148Z,44.50
2019-04-23T13:33:36.168Z,44.40
2019-04-23T13:38:40.468Z,44.60
2019-04-23T13:43:43.734Z,44.00
2019-04-23T13:48:24.912Z,44.10
2019-04-23T13:51:09.329Z,43.80
2019-04-23T13:56:13.274Z,44.30
2019-04-23T13:58:44.888Z,44.80
2019-04-23T14:01:21.901Z,44.30
2019-04-23T14:03:50.568Z,44.00
2019-04-23T14:08:55.302Z,44.10
2019-04-23T14:11:23.199Z,44.40
2019-04-23T14:14:08.225Z,44.60
2019-04-23T14:21:25.228Z,45.10
2019-04-23T14:24:08.418Z,46.50
2019-04-23T14:26:32.600Z,48.20
2019-04-23T14:29:01.184Z,48.10
2019-04-23T14:31:30.441Z,47.10
2019-04-23T14:34:04.885Z,48.40
2019-04-23T14:36:37.698Z,48.70
2019-04-23T14:39:05.939Z,49.50
2019-04-23T14:41:31.195Z,50.50
2019-04-23T14:44:16.029Z,50.60
2019-04-23T14:49:19.285Z,53.10
2019-04-23T14:54:33.375Z,56.90
2019-04-23T14:57:07.939Z,56.90
2019-04-23T14:59:29.099Z,58.30
2019-04-23T15:04:31.666Z,60.60
2019-04-23T15:07:07.539Z,61.10
2019-04-23T15:14:59.858Z,62.10
2019-04-23T15:17:12.793Z,62.30
2019-04-23T15:22:23.232Z,61.40
2019-04-23T15:24:51.619Z,61.60
2019-04-23T15:29:39.292Z,61.90
2019-04-23T15:32:23.854Z,61.90
2019-04-23T15:35:01.287Z,62.20
2019-04-23T15:40:04.060Z,62.00
2019-04-23T15:45:01.356Z,59.10
2019-04-23T15:47:36.042Z,58.40
2019-04-23T15:50:10.423Z,57.50
2019-04-23T15:57:53.591Z,56.50
2019-04-23T16:00:05.281Z,55.70
2019-04-23T16:02:12.885Z,55.30
2019-04-23T16:04:43.942Z,55.40
2019-04-23T16:07:32.625Z,55.30
2019-04-23T16:10:17.611Z,55.70
2019-04-23T16:12:54.489Z,54.80
2019-04-23T16:15:21.321Z,54.80
2019-04-23T16:18:09.770Z,55.30
2019-04-23T16:20:59.016Z,55.30
2019-04-23T16:23:17.863Z,55.10
2019-04-23T16:25:50.353Z,55.00
2019-04-23T16:28:23.850Z,54.90
2019-04-23T16:31:00.018Z,55.00
2019-04-23T16:33:17.189Z,55.00
2019-04-23T16:36:04.085Z,54.90
2019-04-23T16:40:59.792Z,55.00
2019-04-23T16:43:38.305Z,55.50
2019-04-23T16:46:11.497Z,55.50
2019-04-23T16:48:55.489Z,55.90
2019-04-23T16:53:42.992Z,56.10
2019-04-23T16:56:16.422Z,56.20
2019-04-23T16:58:59.456Z,56.30
2019-04-23T17:01:26.410Z,56.50
2019-04-23T17:04:11.765Z,56.60
2019-04-23T17:08:57.130Z,56.70
2019-04-23T17:16:28.592Z,57.40
2019-04-23T17:19:04.772Z,57.30
2019-04-23T17:21:32.090Z,57.20
2019-04-23T17:24:11.467Z,57.50
2019-04-23T17:26:29.102Z,57.60
2019-04-23T17:29:05.804Z,57.90
2019-04-23T17:36:38.529Z,58.30
2019-04-23T17:39:14.542Z,58.50
2019-04-23T17:42:12.555Z,58.40
2019-04-23T17:47:08.745Z,58.50
2019-04-23T17:49:42.218Z,58.20
2019-04-23T17:52:14.693Z,57.90
2019-04-23T17:54:50.168Z,57.80
2019-04-23T17:57:18.645Z,57.30
2019-04-23T18:00:11.540Z,57.00
2019-04-23T18:07:38.321Z,56.80
2019-04-23T18:10:12.032Z,56.90
2019-04-23T18:12:41.720Z,56.40
2019-04-23T18:15:13.053Z,56.30
2019-04-23T18:17:34.307Z,56.40
2019-04-23T18:20:16.281Z,56.20
2019-04-23T18:22:53.920Z,56.20
2019-04-23T18:25:26.191Z,56.40
2019-04-23T18:30:53.790Z,56.30
2019-04-23T18:38:18.615Z,55.70
2019-04-23T18:43:26.803Z,56.30
2019-04-23T18:46:02.586Z,56.60
2019-04-23T18:56:11.181Z,56.70
2019-04-23T19:01:11.120Z,56.80
2019-04-23T19:04:09.863Z,56.70
2019-04-23T19:06:32.687Z,56.60
2019-04-23T19:12:14.346Z,56.70
2019-04-23T19:17:31.016Z,56.80
2019-04-23T19:19:33.389Z,57.00
2019-04-23T19:24:39.075Z,56.70
2019-04-23T19:29:44.013Z,56.80
2019-04-23T19:32:00.486Z,56.60
2019-04-23T19:37:35.179Z,56.00
2019-04-23T19:39:43.182Z,55.90
2019-04-23T19:42:10.329Z,56.00
2019-04-23T19:44:47.586Z,55.70
2019-04-23T19:47:19.386Z,55.90
2019-04-23T19:50:03.623Z,56.10
2019-04-23T19:52:30.797Z,56.20
2019-04-23T19:54:58.494Z,56.40
2019-04-23T19:57:33.914Z,56.40
2019-04-23T20:02:55.189Z,56.60
2019-04-23T20:04:59.652Z,56.80
2019-04-23T20:07:48.932Z,56.90
2019-04-23T20:10:03.783Z,57.10
2019-04-23T20:12:42.888Z,57.10
2019-04-23T20:15:35.578Z,57.20
2019-04-23T20:17:42.745Z,57.40
2019-04-23T20:20:09.030Z,57.50
2019-04-23T20:27:54.178Z,57.80
2019-04-23T20:35:34.899Z,57.90
2019-04-23T20:43:09.768Z,58.50
2019-04-23T20:45:46.555Z,58.90
2019-04-23T20:48:15.402Z,59.30
2019-04-23T20:50:44.614Z,59.60
2019-04-23T20:53:17.738Z,60.30
2019-04-23T20:56:02.165Z,60.50
2019-04-23T20:58:31.643Z,61.40
2019-04-23T21:01:17.538Z,62.20
2019-04-23T21:03:46.528Z,62.50
2019-04-23T21:06:08.725Z,62.90
2019-04-23T21:09:02.641Z,63.20
2019-04-23T21:11:14.486Z,63.50
2019-04-23T21:18:51.416Z,63.50
2019-04-23T21:21:25.215Z,63.50
2019-04-23T21:23:52.588Z,63.60
2019-04-23T21:26:17.042Z,64.10
2019-04-23T21:28:57.164Z,65.90
2019-04-23T21:31:25.445Z,66.10
2019-04-23T21:34:06.216Z,66.70
2019-04-23T21:41:58.032Z,67.90
2019-04-23T21:44:18.564Z,67.00
2019-04-23T21:46:55.311Z,68.10
2019-04-23T21:52:02.607Z,68.00
2019-04-23T21:54:35.485Z,67.50
2019-04-23T21:57:01.694Z,67.40
2019-04-23T21:59:35.440Z,67.20
2019-04-23T22:02:09.221Z,68.20
2019-04-23T22:04:41.419Z,67.20
2019-04-23T22:07:08.526Z,67.40
2019-04-23T22:09:45.306Z,68.40
2019-04-23T22:14:47.511Z,67.30
2019-04-23T22:17:15.077Z,66.90
2019-04-23T22:19:58.585Z,66.40
2019-04-23T22:22:20.350Z,66.30
2019-04-23T22:27:16.596Z,66.20
2019-04-23T22:29:50.411Z,65.90
2019-04-23T22:32:33.279Z,65.80
2019-04-23T22:37:48.336Z,64.90
2019-04-23T22:39:59.034Z,64.50
2019-04-23T22:42:54.497Z,64.50
2019-04-23T22:47:33.645Z,64.40
2019-04-23T22:50:06.134Z,64.20
2019-04-23T22:52:40.936Z,63.90
2019-04-23T23:00:13.369Z,63.30
2019-04-23T23:03:09.801Z,64.10
2019-04-23T23:06:03.159Z,64.10
2019-04-23T23:08:24.099Z,64.40
2019-04-23T23:10:56.941Z,64.10
2019-04-23T23:13:34.836Z,64.40
2019-04-23T23:16:01.340Z,65.30
2019-04-23T23:18:23.702Z,64.30
2019-04-23T23:20:59.515Z,64.30
2019-04-23T23:26:09.792Z,64.20
2019-04-23T23:28:38.498Z,64.00
2019-04-23T23:33:45.546Z,64.30
2019-04-23T23:38:52.318Z,64.20
2019-04-23T23:44:24.083Z,64.40
2019-04-23T23:48:51.324Z,64.30
